createdAt,value
2023-02-19T00:00:17.062Z,1.65
2023-02-19T00:01:22.481Z,1.85
2023-02-19T00:02:24.502Z,1.23
2023-02-19T00:03:27.621Z,1.60
2023-02-19T00:04:29.843Z,1.40
2023-02-19T00:05:32.819Z,1.60
2023-02-19T00:06:36.206Z,1.80
2023-02-19T00:07:39.194Z,1.25
2023-02-19T00:08:41.171Z,1.48
2023-02-19T00:09:44.173Z,1.48
2023-02-19T00:10:47.558Z,1.30
2023-02-19T00:11:50.569Z,1.45
2023-02-19T00:12:52.556Z,1.40
2023-02-19T00:13:57.461Z,1.40
2023-02-19T00:15:00.525Z,1.50
2023-02-19T00:16:06.316Z,1.60
2023-02-19T00:17:09.322Z,1.30
2023-02-19T00:18:11.375Z,1.75
2023-02-19T00:19:20.432Z,2.00
2023-02-19T00:20:22.416Z,1.33
2023-02-19T00:21:26.283Z,1.30
2023-02-19T00:22:28.254Z,2.05
2023-02-19T00:23:31.586Z,1.77
2023-02-19T00:24:34.544Z,1.60
2023-02-19T00:25:36.913Z,1.55
2023-02-19T00:26:42.511Z,1.58
2023-02-19T00:27:44.530Z,1.42
2023-02-19T00:28:48.638Z,1.55
2023-02-19T00:29:50.733Z,1.80
2023-02-19T00:30:53.715Z,1.20
2023-02-19T00:31:55.853Z,1.23
2023-02-19T00:32:58.939Z,1.50
2023-02-19T00:34:03.844Z,1.35
2023-02-19T00:35:07.318Z,1.55
2023-02-19T00:36:28.051Z,1.30
2023-02-19T00:37:31.110Z,1.80
2023-02-19T00:38:36.847Z,1.55
2023-02-19T00:39:39.818Z,1.40
2023-02-19T00:40:41.754Z,1.50
2023-02-19T00:41:46.478Z,1.70
2023-02-19T00:42:48.701Z,1.55
2023-02-19T00:43:54.133Z,1.60
2023-02-19T00:44:56.638Z,2.05
2023-02-19T00:45:59.527Z,1.70
2023-02-19T00:47:02.483Z,1.90
2023-02-19T00:48:06.184Z,1.65
2023-02-19T00:49:10.044Z,1.15
2023-02-19T00:50:12.238Z,1.60
2023-02-19T00:51:16.502Z,1.33
2023-02-19T00:52:18.435Z,1.52
2023-02-19T00:53:21.539Z,1.30
2023-02-19T00:54:24.858Z,1.50
2023-02-19T00:55:27.011Z,1.65
2023-02-19T00:56:31.041Z,1.70
2023-02-19T00:57:34.723Z,1.33
2023-02-19T00:58:41.509Z,1.75
2023-02-19T00:59:44.470Z,1.55
2023-02-19T01:00:46.967Z,1.90
2023-02-19T01:01:50.743Z,1.75
2023-02-19T01:02:52.946Z,1.58
2023-02-19T01:03:56.041Z,1.50
2023-02-19T01:04:58.054Z,2.00
2023-02-19T01:06:02.225Z,1.60
2023-02-19T01:07:04.290Z,1.42
2023-02-19T01:08:07.339Z,1.45
2023-02-19T01:09:10.345Z,1.45
2023-02-19T01:10:12.354Z,1.40
2023-02-19T01:11:16.403Z,1.45
2023-02-19T01:12:18.381Z,1.58
2023-02-19T01:13:22.663Z,1.75
2023-02-19T01:14:24.653Z,1.45
2023-02-19T01:15:27.614Z,1.52
2023-02-19T01:16:30.997Z,1.63
2023-02-19T01:17:37.210Z,1.40
2023-02-19T01:18:39.996Z,1.77
2023-02-19T01:19:43.930Z,1.58
2023-02-19T01:20:46.598Z,1.70
2023-02-19T01:21:49.634Z,1.40
2023-02-19T01:22:51.662Z,1.67
2023-02-19T01:23:55.329Z,1.63
2023-02-19T01:24:57.771Z,1.50
2023-02-19T01:26:00.857Z,1.50
2023-02-19T01:27:02.879Z,1.65
2023-02-19T01:28:06.004Z,1.50
2023-02-19T01:29:10.059Z,1.33
2023-02-19T01:30:13.981Z,1.40
2023-02-19T01:31:18.373Z,1.20
2023-02-19T01:32:21.716Z,2.00
2023-02-19T01:33:23.713Z,1.48
2023-02-19T01:34:27.025Z,1.58
2023-02-19T01:35:29.031Z,2.30
2023-02-19T01:36:34.779Z,1.50
2023-02-19T01:37:37.351Z,1.40
2023-02-19T01:38:40.326Z,1.13
2023-02-19T01:39:42.348Z,1.38
2023-02-19T01:40:45.289Z,1.58
2023-02-19T01:41:47.259Z,1.50
2023-02-19T01:42:50.340Z,2.05
2023-02-19T01:43:58.066Z,1.30
2023-02-19T01:45:23.068Z,1.40
2023-02-19T01:46:26.277Z,1.38
2023-02-19T01:47:29.342Z,1.33
2023-02-19T01:48:36.084Z,1.50
2023-02-19T01:49:48.587Z,1.42
2023-02-19T01:50:55.386Z,1.92
2023-02-19T01:52:00.431Z,1.17
2023-02-19T01:53:07.454Z,1.33
2023-02-19T01:54:13.168Z,1.75
2023-02-19T01:55:16.586Z,1.60
2023-02-19T01:56:20.359Z,2.88
2023-02-19T01:57:26.505Z,1.85
2023-02-19T01:58:33.678Z,1.40
2023-02-19T01:59:37.072Z,1.65
2023-02-19T02:00:40.918Z,1.83
2023-02-19T02:01:43.982Z,1.08
2023-02-19T02:02:52.493Z,1.95
2023-02-19T02:03:55.610Z,1.42
2023-02-19T02:05:00.184Z,1.83
2023-02-19T02:06:05.775Z,1.80
2023-02-19T02:07:28.519Z,1.70
2023-02-19T02:08:50.892Z,1.67
2023-02-19T02:10:15.016Z,1.35
2023-02-19T02:11:18.520Z,1.25
2023-02-19T02:12:20.547Z,1.65
2023-02-19T02:13:23.543Z,2.13
2023-02-19T02:14:29.470Z,1.42
2023-02-19T02:15:40.655Z,1.70
2023-02-19T02:16:53.492Z,1.80
2023-02-19T02:17:59.460Z,1.52
2023-02-19T02:19:14.972Z,1.45
2023-02-19T02:20:33.521Z,1.50
2023-02-19T02:22:06.839Z,1.10
2023-02-19T02:23:16.890Z,1.40
2023-02-19T02:24:38.360Z,1.20
2023-02-19T02:25:58.959Z,2.15
2023-02-19T02:27:23.795Z,1.80
2023-02-19T02:28:51.886Z,1.23
2023-02-19T02:30:23.912Z,1.40
2023-02-19T02:31:30.687Z,1.35
2023-02-19T02:32:38.019Z,1.20
2023-02-19T02:33:44.889Z,1.80
2023-02-19T02:34:53.859Z,1.60
2023-02-19T02:35:59.460Z,1.70
2023-02-19T02:37:05.430Z,2.00
2023-02-19T02:38:10.200Z,1.50
2023-02-19T02:39:16.444Z,1.70
2023-02-19T02:40:19.838Z,1.63
2023-02-19T02:41:23.046Z,1.80
2023-02-19T02:42:27.640Z,1.80
2023-02-19T02:43:39.119Z,1.65
2023-02-19T02:44:42.091Z,2.10
2023-02-19T02:45:46.379Z,1.65
2023-02-19T02:46:55.910Z,1.80
2023-02-19T02:47:59.733Z,1.90
2023-02-19T02:49:05.486Z,1.90
2023-02-19T02:50:15.133Z,1.58
2023-02-19T02:51:23.957Z,1.58
2023-02-19T02:52:57.650Z,1.95
2023-02-19T02:54:23.449Z,1.60
2023-02-19T02:55:31.337Z,2.25
2023-02-19T02:56:35.950Z,1.65
2023-02-19T02:57:38.648Z,1.63
2023-02-19T02:58:42.412Z,1.67
2023-02-19T02:59:49.073Z,1.88
2023-02-19T03:01:18.738Z,1.55
2023-02-19T03:02:26.891Z,1.95
2023-02-19T03:03:32.562Z,1.55
2023-02-19T03:05:03.229Z,1.80
2023-02-19T03:06:12.147Z,1.90
2023-02-19T03:07:15.898Z,1.70
2023-02-19T03:08:24.868Z,1.70
2023-02-19T03:09:40.444Z,1.60
2023-02-19T03:10:48.502Z,1.70
2023-02-19T03:12:11.079Z,1.50
2023-02-19T03:13:47.402Z,1.75
2023-02-19T03:15:11.941Z,1.23
2023-02-19T03:16:38.872Z,1.67
2023-02-19T03:18:05.708Z,1.65
2023-02-19T03:19:30.666Z,2.10
2023-02-19T03:20:37.871Z,1.30
2023-02-19T03:21:43.768Z,1.63
2023-02-19T03:22:50.112Z,1.73
2023-02-19T03:24:12.400Z,1.73
2023-02-19T03:25:37.339Z,1.80
2023-02-19T03:26:43.117Z,1.75
2023-02-19T03:27:49.783Z,1.58
2023-02-19T03:29:12.590Z,1.98
2023-02-19T03:30:22.639Z,1.60
2023-02-19T03:31:30.114Z,2.03
2023-02-19T03:32:40.366Z,1.52
2023-02-19T03:33:46.137Z,1.20
2023-02-19T03:34:53.803Z,1.88
2023-02-19T03:36:00.799Z,1.70
2023-02-19T03:37:21.703Z,1.40
2023-02-19T03:38:28.165Z,1.63
2023-02-19T03:39:31.981Z,2.03
2023-02-19T03:40:56.187Z,2.00
2023-02-19T03:42:06.062Z,1.52
2023-02-19T03:43:18.076Z,1.85
2023-02-19T03:44:27.593Z,1.35
2023-02-19T03:45:38.998Z,1.90
2023-02-19T03:46:51.957Z,1.48
2023-02-19T03:48:04.570Z,1.90
2023-02-19T03:49:18.660Z,1.80
2023-02-19T03:50:28.546Z,1.65
2023-02-19T03:51:39.046Z,1.80
2023-02-19T03:52:54.115Z,1.65
2023-02-19T03:54:10.620Z,1.65
2023-02-19T03:55:18.109Z,1.90
2023-02-19T03:56:30.539Z,2.33
2023-02-19T03:57:40.552Z,2.45
2023-02-19T03:58:52.109Z,1.30
2023-02-19T04:00:01.172Z,1.50
2023-02-19T04:01:07.412Z,1.98
2023-02-19T04:02:14.756Z,1.92
2023-02-19T04:03:21.040Z,1.52
2023-02-19T04:04:28.941Z,1.80
2023-02-19T04:05:33.335Z,1.55
2023-02-19T04:06:38.960Z,1.40
2023-02-19T04:07:45.263Z,1.60
2023-02-19T04:08:54.014Z,1.70
2023-02-19T04:09:56.623Z,1.80
2023-02-19T04:11:01.238Z,1.83
2023-02-19T04:12:07.666Z,1.65
2023-02-19T04:13:16.168Z,1.80
2023-02-19T04:14:23.194Z,1.58
2023-02-19T04:15:30.275Z,1.95
2023-02-19T04:16:36.684Z,1.60
2023-02-19T04:17:53.599Z,1.75
2023-02-19T04:19:00.760Z,1.98
2023-02-19T04:20:08.041Z,1.60
2023-02-19T04:21:12.064Z,1.63
2023-02-19T04:22:16.204Z,1.40
2023-02-19T04:23:24.220Z,1.63
2023-02-19T04:24:31.212Z,1.98
2023-02-19T04:25:35.747Z,1.60
2023-02-19T04:26:38.319Z,1.48
2023-02-19T04:27:42.037Z,1.65
2023-02-19T04:28:44.239Z,1.40
2023-02-19T04:29:47.219Z,1.70
2023-02-19T04:30:49.293Z,1.50
2023-02-19T04:31:52.272Z,1.42
2023-02-19T04:32:55.464Z,1.75
2023-02-19T04:33:58.387Z,1.88
2023-02-19T04:35:00.375Z,1.95
2023-02-19T04:36:03.257Z,1.50
2023-02-19T04:37:06.701Z,2.05
2023-02-19T04:38:08.657Z,1.52
2023-02-19T04:39:11.646Z,1.30
2023-02-19T04:40:13.669Z,1.90
2023-02-19T04:41:16.555Z,1.73
2023-02-19T04:42:18.641Z,1.40
2023-02-19T04:43:21.718Z,1.40
2023-02-19T04:44:23.665Z,1.88
2023-02-19T04:45:26.548Z,1.50
2023-02-19T04:46:28.534Z,1.48
2023-02-19T04:47:32.767Z,1.60
2023-02-19T04:48:36.020Z,1.80
2023-02-19T04:49:38.918Z,1.20
2023-02-19T04:50:40.964Z,1.70
2023-02-19T04:51:43.963Z,1.45
2023-02-19T04:52:49.140Z,2.10
2023-02-19T04:53:52.047Z,1.38
2023-02-19T04:54:54.101Z,1.63
2023-02-19T04:55:56.960Z,1.77
2023-02-19T04:56:58.946Z,1.50
2023-02-19T04:58:01.856Z,1.60
2023-02-19T04:59:03.839Z,1.50
2023-02-19T05:00:08.384Z,1.30
2023-02-19T05:01:11.284Z,1.70
2023-02-19T05:02:14.291Z,1.65
2023-02-19T05:03:16.171Z,1.83
2023-02-19T05:04:20.518Z,1.48
2023-02-19T05:05:22.546Z,1.98
2023-02-19T05:06:25.449Z,1.90
2023-02-19T05:07:27.415Z,1.40
2023-02-19T05:08:30.291Z,1.83
2023-02-19T05:09:32.298Z,1.88
2023-02-19T05:10:35.234Z,1.50
2023-02-19T05:11:37.450Z,1.33
2023-02-19T05:12:40.333Z,1.73
2023-02-19T05:13:42.266Z,1.52
2023-02-19T05:14:45.197Z,1.30
2023-02-19T05:15:55.337Z,1.52
2023-02-19T05:16:58.571Z,1.75
2023-02-19T05:18:00.537Z,1.70
2023-02-19T05:19:03.430Z,1.60
2023-02-19T05:20:07.760Z,1.35
2023-02-19T05:21:11.972Z,1.50
2023-02-19T05:22:14.066Z,1.60
2023-02-19T05:23:16.951Z,1.45
2023-02-19T05:24:19.200Z,1.80
2023-02-19T05:25:22.095Z,1.70
2023-02-19T05:26:24.136Z,1.48
2023-02-19T05:27:27.186Z,1.40
2023-02-19T05:28:29.136Z,1.55
2023-02-19T05:29:32.606Z,1.70
2023-02-19T05:30:35.511Z,1.35
2023-02-19T05:31:38.652Z,1.55
2023-02-19T05:32:40.577Z,1.55
2023-02-19T05:33:44.295Z,1.42
2023-02-19T05:34:46.160Z,1.20
2023-02-19T05:35:51.724Z,1.33
2023-02-19T05:36:53.614Z,1.38
2023-02-19T05:37:56.811Z,1.73
2023-02-19T05:38:59.018Z,1.60
2023-02-19T05:40:01.921Z,1.60
2023-02-19T05:41:09.608Z,2.00
2023-02-19T05:42:14.834Z,1.60
2023-02-19T05:43:17.275Z,2.00
2023-02-19T05:44:20.139Z,1.35
2023-02-19T05:45:22.005Z,1.40
2023-02-19T05:46:26.555Z,1.70
2023-02-19T05:47:28.522Z,1.83
2023-02-19T05:48:31.353Z,1.40
2023-02-19T05:49:33.289Z,1.60
2023-02-19T05:50:39.829Z,1.58
2023-02-19T05:51:52.782Z,1.73
2023-02-19T05:52:54.662Z,1.65
2023-02-19T05:53:58.561Z,1.55
2023-02-19T05:55:00.439Z,1.80
2023-02-19T05:56:03.872Z,1.40
2023-02-19T05:57:05.757Z,1.73
2023-02-19T05:58:08.778Z,1.38
2023-02-19T05:59:16.480Z,1.90
2023-02-19T06:00:20.792Z,1.70
2023-02-19T06:01:25.289Z,1.95
2023-02-19T06:02:28.148Z,1.50
2023-02-19T06:03:30.173Z,1.80
2023-02-19T06:04:33.080Z,1.75
2023-02-19T06:05:35.027Z,1.50
2023-02-19T06:06:38.176Z,1.55
2023-02-19T06:07:42.932Z,1.45
2023-02-19T06:08:46.104Z,1.75
2023-02-19T06:09:50.444Z,1.55
2023-02-19T06:10:53.317Z,1.70
2023-02-19T06:11:56.196Z,1.80
2023-02-19T06:12:58.125Z,1.70
2023-02-19T06:14:01.228Z,2.00
2023-02-19T06:15:04.654Z,1.65
2023-02-19T06:16:08.895Z,1.83
2023-02-19T06:17:10.982Z,1.90
2023-02-19T06:18:13.864Z,1.50
2023-02-19T06:19:15.781Z,1.75
2023-02-19T06:20:18.982Z,2.10
2023-02-19T06:21:21.027Z,1.52
2023-02-19T06:22:23.907Z,1.60
2023-02-19T06:23:29.072Z,1.40
2023-02-19T06:24:32.431Z,1.88
2023-02-19T06:25:34.333Z,1.50
2023-02-19T06:26:37.887Z,1.52
2023-02-19T06:27:39.866Z,1.80
2023-02-19T06:28:43.319Z,1.73
2023-02-19T06:29:46.306Z,1.73
2023-02-19T06:30:50.102Z,2.00
2023-02-19T06:31:54.512Z,2.10
2023-02-19T06:32:56.522Z,1.50
2023-02-19T06:33:59.389Z,1.80
2023-02-19T06:35:01.353Z,1.88
2023-02-19T06:36:05.789Z,1.45
2023-02-19T06:37:07.917Z,1.63
2023-02-19T06:38:10.930Z,1.70
2023-02-19T06:39:15.192Z,1.77
2023-02-19T06:40:17.230Z,1.60
2023-02-19T06:41:20.702Z,1.70
2023-02-19T06:42:22.728Z,1.65
2023-02-19T06:43:25.594Z,1.70
2023-02-19T06:44:27.706Z,1.90
2023-02-19T06:45:30.566Z,2.35
2023-02-19T06:46:32.504Z,1.48
2023-02-19T06:47:35.466Z,2.05
2023-02-19T06:48:39.377Z,1.80
2023-02-19T06:49:42.302Z,1.85
2023-02-19T06:50:44.176Z,2.03
2023-02-19T06:51:47.128Z,1.70
2023-02-19T06:52:49.102Z,1.67
2023-02-19T06:53:52.011Z,1.77
2023-02-19T06:54:55.298Z,1.55
2023-02-19T06:55:59.467Z,1.88
2023-02-19T06:57:01.922Z,1.58
2023-02-19T06:58:05.026Z,1.80
2023-02-19T06:59:08.592Z,1.70
2023-02-19T07:00:12.374Z,1.50
2023-02-19T07:01:14.308Z,1.65
2023-02-19T07:02:17.198Z,1.65
2023-02-19T07:03:19.111Z,1.98
2023-02-19T07:04:22.072Z,1.67
2023-02-19T07:05:23.985Z,1.63
2023-02-19T07:06:27.766Z,1.60
2023-02-19T07:07:29.774Z,1.70
2023-02-19T07:08:32.752Z,2.00
2023-02-19T07:09:34.687Z,1.58
2023-02-19T07:10:38.930Z,1.90
2023-02-19T07:11:41.241Z,1.70
2023-02-19T07:12:44.508Z,2.15
2023-02-19T07:13:46.820Z,1.85
2023-02-19T07:14:49.761Z,1.50
2023-02-19T07:15:57.073Z,1.50
2023-02-19T07:17:20.077Z,1.85
2023-02-19T07:18:22.986Z,1.90
2023-02-19T07:19:25.845Z,2.10
2023-02-19T07:20:27.750Z,1.60
2023-02-19T07:21:31.118Z,2.03
2023-02-19T07:22:33.041Z,1.63
2023-02-19T07:23:36.270Z,2.00
2023-02-19T07:24:39.170Z,1.90
2023-02-19T07:25:42.456Z,1.60
2023-02-19T07:26:45.328Z,1.73
2023-02-19T07:27:47.187Z,1.73
2023-02-19T07:28:52.498Z,1.35
2023-02-19T07:29:54.426Z,1.80
2023-02-19T07:31:01.849Z,1.60
2023-02-19T07:32:04.216Z,1.75
2023-02-19T07:33:10.353Z,2.10
2023-02-19T07:34:12.487Z,1.77
2023-02-19T07:35:15.549Z,2.22
2023-02-19T07:36:18.754Z,1.63
2023-02-19T07:37:21.630Z,1.80
2023-02-19T07:38:25.248Z,1.92
2023-02-19T07:39:28.166Z,2.03
2023-02-19T07:40:30.077Z,1.60
2023-02-19T07:41:34.415Z,1.70
2023-02-19T07:42:36.543Z,1.88
2023-02-19T07:43:40.456Z,1.73
2023-02-19T07:44:42.379Z,2.30
2023-02-19T07:45:45.540Z,1.73
2023-02-19T07:46:47.438Z,1.80
2023-02-19T07:47:50.289Z,1.50
2023-02-19T07:48:52.218Z,1.50
2023-02-19T07:49:55.057Z,2.08
2023-02-19T07:50:58.566Z,2.05
2023-02-19T07:52:02.869Z,1.95
2023-02-19T07:53:05.318Z,1.60
2023-02-19T07:54:08.568Z,2.00
2023-02-19T07:55:10.522Z,1.70
2023-02-19T07:56:14.233Z,2.00
2023-02-19T07:57:17.686Z,2.05
2023-02-19T07:58:20.706Z,1.85
2023-02-19T07:59:22.867Z,1.55
2023-02-19T08:00:25.868Z,2.40
2023-02-19T08:01:42.586Z,2.20
2023-02-19T08:03:03.166Z,1.70
2023-02-19T08:04:06.372Z,1.73
2023-02-19T08:05:08.465Z,2.17
2023-02-19T08:06:12.387Z,1.90
2023-02-19T08:07:14.291Z,1.90
2023-02-19T08:08:17.960Z,1.60
2023-02-19T08:09:19.877Z,1.55
2023-02-19T08:10:40.118Z,2.03
2023-02-19T08:12:00.599Z,2.38
2023-02-19T08:13:22.406Z,1.65
2023-02-19T08:14:26.310Z,1.95
2023-02-19T08:15:28.251Z,2.05
2023-02-19T08:16:42.544Z,1.65
2023-02-19T08:17:45.039Z,1.80
2023-02-19T08:18:48.602Z,1.80
2023-02-19T08:19:50.520Z,1.70
2023-02-19T08:20:53.532Z,1.50
2023-02-19T08:21:55.453Z,1.95
2023-02-19T08:22:58.398Z,1.35
2023-02-19T08:24:01.421Z,1.67
2023-02-19T08:25:03.712Z,2.03
2023-02-19T08:26:07.632Z,1.73
2023-02-19T08:27:09.615Z,1.52
2023-02-19T08:28:14.615Z,1.50
2023-02-19T08:29:17.579Z,1.77
2023-02-19T08:30:19.676Z,1.25
2023-02-19T08:31:22.887Z,1.70
2023-02-19T08:32:25.003Z,1.90
2023-02-19T08:33:28.625Z,1.90
2023-02-19T08:34:30.552Z,1.63
2023-02-19T08:35:35.367Z,1.65
2023-02-19T08:36:39.176Z,1.52
2023-02-19T08:37:41.280Z,1.77
2023-02-19T08:38:44.784Z,1.55
2023-02-19T08:39:47.356Z,1.30
2023-02-19T08:40:50.243Z,1.60
2023-02-19T08:41:52.223Z,2.42
2023-02-19T08:42:55.276Z,1.35
2023-02-19T08:43:59.460Z,1.65
2023-02-19T08:45:01.419Z,1.85
2023-02-19T08:46:07.085Z,1.35
2023-02-19T08:47:09.251Z,1.90
2023-02-19T08:48:12.825Z,1.60
2023-02-19T08:49:16.430Z,2.10
2023-02-19T08:50:18.545Z,1.70
2023-02-19T08:51:21.464Z,1.55
2023-02-19T08:52:23.363Z,1.80
2023-02-19T08:53:26.716Z,1.88
2023-02-19T08:54:29.691Z,1.55
2023-02-19T08:55:32.134Z,1.80
2023-02-19T08:56:35.162Z,1.88
2023-02-19T08:57:37.667Z,1.75
2023-02-19T08:58:41.253Z,2.00
2023-02-19T08:59:44.564Z,1.63
2023-02-19T09:00:48.510Z,1.83
2023-02-19T09:01:52.846Z,2.00
2023-02-19T09:02:54.865Z,2.40
2023-02-19T09:03:59.001Z,1.60
2023-02-19T09:05:01.083Z,1.90
2023-02-19T09:06:04.476Z,1.70
2023-02-19T09:07:09.540Z,1.85
2023-02-19T09:08:11.458Z,1.95
2023-02-19T09:09:14.344Z,1.70
2023-02-19T09:10:16.327Z,2.25
2023-02-19T09:11:19.313Z,2.10
2023-02-19T09:12:21.279Z,2.25
2023-02-19T09:13:24.127Z,2.03
2023-02-19T09:14:26.030Z,2.05
2023-02-19T09:15:30.652Z,2.28
2023-02-19T09:16:32.610Z,2.00
2023-02-19T09:17:35.691Z,1.83
2023-02-19T09:18:38.657Z,1.80
2023-02-19T09:19:40.631Z,2.30
2023-02-19T09:20:43.540Z,2.20
2023-02-19T09:21:45.560Z,1.65
2023-02-19T09:22:48.498Z,1.90
2023-02-19T09:23:51.454Z,2.17
2023-02-19T09:24:54.405Z,1.83
2023-02-19T09:26:01.351Z,1.30
2023-02-19T09:27:04.373Z,1.65
2023-02-19T09:28:06.675Z,1.50
2023-02-19T09:29:09.688Z,1.27
2023-02-19T09:30:12.024Z,1.13
2023-02-19T09:31:17.398Z,1.02
2023-02-19T09:32:19.508Z,0.70
2023-02-19T09:33:22.694Z,1.30
2023-02-19T09:34:24.878Z,0.45
2023-02-19T09:35:27.722Z,0.80
2023-02-19T09:36:30.652Z,0.50
2023-02-19T09:37:34.154Z,0.57
2023-02-19T09:38:37.128Z,0.70
2023-02-19T09:39:39.090Z,0.70
2023-02-19T09:40:42.124Z,0.65
2023-02-19T09:41:46.635Z,0.45
2023-02-19T09:42:51.567Z,0.40
2023-02-19T09:43:53.751Z,0.52
2023-02-19T09:45:00.289Z,0.52
2023-02-19T09:46:07.869Z,0.68
2023-02-19T09:47:18.359Z,0.40
2023-02-19T09:48:20.364Z,0.60
2023-02-19T09:49:29.102Z,0.50
2023-02-19T09:50:36.277Z,0.70
2023-02-19T09:51:42.710Z,0.40
2023-02-19T09:52:49.385Z,0.70
2023-02-19T09:53:52.356Z,0.60
2023-02-19T09:54:59.411Z,0.65
2023-02-19T09:56:01.758Z,0.60
2023-02-19T09:57:05.802Z,0.50
2023-02-19T09:58:21.783Z,0.75
2023-02-19T09:59:27.279Z,0.50
2023-02-19T10:00:34.032Z,0.50
2023-02-19T10:01:40.457Z,0.60
2023-02-19T10:02:44.718Z,0.73
2023-02-19T10:03:49.845Z,0.50
2023-02-19T10:04:52.887Z,0.68
2023-02-19T10:05:56.542Z,0.50
2023-02-19T10:07:03.731Z,0.63
2023-02-19T10:08:10.759Z,0.65
2023-02-19T10:09:22.176Z,0.55
2023-02-19T10:10:34.333Z,0.60
2023-02-19T10:11:37.659Z,0.50
2023-02-19T10:12:44.272Z,0.50
2023-02-19T10:13:51.039Z,0.70
2023-02-19T10:14:59.976Z,0.40
2023-02-19T10:16:06.068Z,0.60
2023-02-19T10:17:25.490Z,0.55
2023-02-19T10:18:37.149Z,0.40
2023-02-19T10:19:40.090Z,0.45
2023-02-19T10:20:41.997Z,0.38
2023-02-19T10:21:45.552Z,1.52
2023-02-19T10:22:47.436Z,0.43
2023-02-19T10:23:55.022Z,0.50
2023-02-19T10:24:58.582Z,0.40
2023-02-19T10:26:01.129Z,0.95
2023-02-19T10:27:04.046Z,0.60
2023-02-19T10:28:14.416Z,0.50
2023-02-19T10:29:17.410Z,0.50
2023-02-19T10:30:23.037Z,0.50
2023-02-19T10:31:27.126Z,0.60
2023-02-19T10:32:29.796Z,0.40
2023-02-19T10:33:34.828Z,0.50
2023-02-19T10:34:36.820Z,0.55
2023-02-19T10:35:53.997Z,0.70
2023-02-19T10:36:56.359Z,0.60
2023-02-19T10:37:59.525Z,0.60
2023-02-19T10:39:04.039Z,0.50
2023-02-19T10:40:12.835Z,0.57
2023-02-19T10:41:18.567Z,0.63
2023-02-19T10:42:23.260Z,0.60
2023-02-19T10:43:33.000Z,0.40
2023-02-19T10:44:43.690Z,0.60
2023-02-19T10:45:47.803Z,0.60
2023-02-19T10:46:55.305Z,0.50
2023-02-19T10:47:58.679Z,0.40
2023-02-19T10:49:06.430Z,0.60
2023-02-19T10:50:21.612Z,0.40
2023-02-19T10:51:32.410Z,0.40
2023-02-19T10:52:36.650Z,0.70
2023-02-19T10:53:43.652Z,0.50
2023-02-19T10:54:46.831Z,0.60
2023-02-19T10:55:49.822Z,0.30
2023-02-19T10:56:52.719Z,0.30
2023-02-19T10:57:55.651Z,0.40
2023-02-19T10:59:16.768Z,0.50
2023-02-19T11:00:26.888Z,0.55
2023-02-19T11:01:29.873Z,0.50
2023-02-19T11:02:32.946Z,0.40
2023-02-19T11:03:34.854Z,0.60
2023-02-19T11:04:39.291Z,0.30
2023-02-19T11:05:56.097Z,0.50
2023-02-19T11:06:58.959Z,0.70
2023-02-19T11:08:01.051Z,0.60
2023-02-19T11:09:04.387Z,0.40
2023-02-19T11:10:07.302Z,0.40
2023-02-19T11:11:10.620Z,0.40
2023-02-19T11:12:15.246Z,0.40
2023-02-19T11:13:27.438Z,0.30
2023-02-19T11:14:33.037Z,0.40
2023-02-19T11:15:36.065Z,0.40
2023-02-19T11:16:42.193Z,0.32
2023-02-19T11:17:45.306Z,0.40
2023-02-19T11:18:57.027Z,0.50
2023-02-19T11:20:08.401Z,0.55
2023-02-19T11:21:25.874Z,0.40
2023-02-19T11:22:32.693Z,0.50
2023-02-19T11:23:37.094Z,0.50
2023-02-19T11:24:40.629Z,0.63
2023-02-19T11:25:46.703Z,0.50
2023-02-19T11:26:49.977Z,0.40
2023-02-19T11:28:03.955Z,0.60
2023-02-19T11:29:19.680Z,0.30
2023-02-19T11:30:36.256Z,0.40
2023-02-19T11:31:39.554Z,0.50
2023-02-19T11:32:41.519Z,0.60
2023-02-19T11:33:55.393Z,0.50
2023-02-19T11:35:22.670Z,0.40
2023-02-19T11:36:34.264Z,0.50
2023-02-19T11:37:36.224Z,0.57
2023-02-19T11:38:39.062Z,0.50
2023-02-19T11:39:44.253Z,0.47
2023-02-19T11:40:55.792Z,1.45
2023-02-19T11:42:22.921Z,0.70
2023-02-19T11:43:49.200Z,0.60
2023-02-19T11:45:08.062Z,0.40
2023-02-19T11:46:18.235Z,0.40
2023-02-19T11:47:50.270Z,0.82
2023-02-19T11:48:55.849Z,0.40
2023-02-19T11:50:09.337Z,0.43
2023-02-19T11:51:30.269Z,0.70
2023-02-19T11:52:38.730Z,0.50
2023-02-19T11:53:49.781Z,0.40
2023-02-19T11:54:58.226Z,0.60
2023-02-19T11:56:14.030Z,0.50
2023-02-19T11:57:30.277Z,0.40
2023-02-19T11:58:48.579Z,0.50
2023-02-19T12:00:02.147Z,0.70
2023-02-19T12:01:18.106Z,0.65
2023-02-19T12:02:39.071Z,0.63
2023-02-19T12:04:06.133Z,0.60
2023-02-19T12:05:38.477Z,0.60
2023-02-19T12:06:56.345Z,0.50
2023-02-19T12:08:20.221Z,0.60
2023-02-19T12:09:36.523Z,0.65
2023-02-19T12:10:49.744Z,0.40
2023-02-19T12:12:06.443Z,0.50
2023-02-19T12:13:20.634Z,0.40
2023-02-19T12:15:02.208Z,0.77
2023-02-19T12:16:15.944Z,0.50
2023-02-19T12:17:55.563Z,0.68
2023-02-19T12:19:23.794Z,0.70
2023-02-19T12:20:34.845Z,0.57
2023-02-19T12:21:54.380Z,0.80
2023-02-19T12:23:10.611Z,0.98
2023-02-19T12:24:28.875Z,0.70
2023-02-19T12:25:56.869Z,0.98
2023-02-19T12:27:09.498Z,0.70
2023-02-19T12:28:29.515Z,0.60
2023-02-19T12:29:52.317Z,0.50
2023-02-19T12:31:08.910Z,0.70
2023-02-19T12:32:28.397Z,0.60
2023-02-19T12:33:58.722Z,0.60
2023-02-19T12:35:15.583Z,0.70
2023-02-19T12:36:27.989Z,0.85
2023-02-19T12:37:41.645Z,0.50
2023-02-19T12:38:45.796Z,0.45
2023-02-19T12:40:00.884Z,0.65
2023-02-19T12:41:19.641Z,0.65
2023-02-19T12:42:39.283Z,0.70
2023-02-19T12:43:46.881Z,0.68
2023-02-19T12:44:54.001Z,0.80
2023-02-19T12:46:00.482Z,0.60
2023-02-19T12:47:07.632Z,0.60
2023-02-19T12:48:16.919Z,0.52
2023-02-19T12:49:27.582Z,0.60
2023-02-19T12:50:31.929Z,0.98
2023-02-19T12:51:40.650Z,0.68
2023-02-19T12:52:48.564Z,0.60
2023-02-19T12:53:56.694Z,1.52
2023-02-19T12:55:04.322Z,0.57
2023-02-19T12:56:14.690Z,1.05
2023-02-19T12:57:22.746Z,0.60
2023-02-19T12:58:30.571Z,0.47
2023-02-19T12:59:39.157Z,0.45
2023-02-19T13:00:44.651Z,0.63
2023-02-19T13:01:53.147Z,0.80
2023-02-19T13:03:01.819Z,0.50
2023-02-19T13:04:23.778Z,0.60
2023-02-19T13:05:35.594Z,0.68
2023-02-19T13:06:44.056Z,0.60
2023-02-19T13:08:00.466Z,0.70
2023-02-19T13:09:07.912Z,0.80
2023-02-19T13:10:21.893Z,0.50
2023-02-19T13:11:28.753Z,0.55
2023-02-19T13:12:36.874Z,0.60
2023-02-19T13:13:43.640Z,0.50
2023-02-19T13:14:49.117Z,0.80
2023-02-19T13:15:55.154Z,0.65
2023-02-19T13:17:02.485Z,0.70
2023-02-19T13:18:12.304Z,0.77
2023-02-19T13:19:15.258Z,0.65
2023-02-19T13:20:25.003Z,0.40
2023-02-19T13:21:49.065Z,0.70
2023-02-19T13:23:20.329Z,1.35
2023-02-19T13:24:26.321Z,0.45
2023-02-19T13:25:44.202Z,0.63
2023-02-19T13:27:01.775Z,0.60
2023-02-19T13:28:28.352Z,0.80
2023-02-19T13:29:46.615Z,0.57
2023-02-19T13:31:16.427Z,0.60
2023-02-19T13:32:45.725Z,0.50
2023-02-19T13:33:59.880Z,0.60
2023-02-19T13:35:19.964Z,0.50
2023-02-19T13:36:27.128Z,0.50
2023-02-19T13:37:32.932Z,0.50
2023-02-19T13:38:41.227Z,0.60
2023-02-19T13:39:49.951Z,0.50
2023-02-19T13:40:56.839Z,0.70
2023-02-19T13:42:00.389Z,0.75
2023-02-19T13:43:05.498Z,0.98
2023-02-19T13:44:17.191Z,0.40
2023-02-19T13:45:25.060Z,0.95
2023-02-19T13:46:36.575Z,0.45
2023-02-19T13:47:50.312Z,0.40
2023-02-19T13:49:39.939Z,0.60
2023-02-19T13:50:43.046Z,0.52
2023-02-19T13:51:51.063Z,0.73
2023-02-19T13:52:54.837Z,0.50
2023-02-19T13:54:01.062Z,0.50
2023-02-19T13:55:48.497Z,0.47
2023-02-19T13:57:12.295Z,0.60
2023-02-19T13:58:54.237Z,0.50
2023-02-19T13:59:58.012Z,0.45
2023-02-19T14:01:01.309Z,0.65
2023-02-19T14:02:23.115Z,0.80
2023-02-19T14:03:29.167Z,0.50
2023-02-19T14:04:51.804Z,0.60
2023-02-19T14:05:59.918Z,0.50
2023-02-19T14:07:37.412Z,0.60
2023-02-19T14:08:52.628Z,0.60
2023-02-19T14:09:55.939Z,0.60
2023-02-19T14:11:02.434Z,0.65
2023-02-19T14:12:17.763Z,0.57
2023-02-19T14:14:06.686Z,0.60
2023-02-19T14:15:43.875Z,0.60
2023-02-19T14:17:04.933Z,0.70
2023-02-19T14:18:40.456Z,0.80
2023-02-19T14:19:57.275Z,0.80
2023-02-19T14:21:14.017Z,0.65
2023-02-19T14:23:01.467Z,0.70
2023-02-19T14:24:06.296Z,0.75
2023-02-19T14:25:21.392Z,0.73
2023-02-19T14:26:26.347Z,0.90
2023-02-19T14:27:28.473Z,0.93
2023-02-19T14:28:44.291Z,0.70
2023-02-19T14:29:46.490Z,0.70
2023-02-19T14:30:53.428Z,0.70
2023-02-19T14:31:57.325Z,0.80
2023-02-19T14:33:10.228Z,0.60
2023-02-19T14:34:22.372Z,1.10
2023-02-19T14:35:29.275Z,0.93
2023-02-19T14:36:48.533Z,0.90
2023-02-19T14:37:52.016Z,1.10
2023-02-19T14:38:58.814Z,0.80
2023-02-19T14:40:01.243Z,0.65
2023-02-19T14:41:07.604Z,1.08
2023-02-19T14:42:18.476Z,0.90
2023-02-19T14:43:23.038Z,1.10
2023-02-19T14:44:28.581Z,0.98
2023-02-19T14:45:37.493Z,0.88
2023-02-19T14:46:49.000Z,0.98
2023-02-19T14:47:52.193Z,1.20
2023-02-19T14:48:55.153Z,0.85
2023-02-19T14:50:01.106Z,0.90
2023-02-19T14:51:08.553Z,0.88
2023-02-19T14:52:15.707Z,1.30
2023-02-19T14:53:22.787Z,0.93
2023-02-19T14:54:36.097Z,1.10
2023-02-19T14:55:42.651Z,1.20